sensor_id;sensor_type;location;lat;lon;timestamp;pressure;altitude;pressure_sealevel;temperature;humidity
61359;BME280;47228;46.762;23.598;2024-03-02T00:01:45;96857.63;;;10.95;47.33
61359;BME280;47228;46.762;23.598;2024-03-02T00:04:13;96857.54;;;10.95;47.14
61359;BME280;47228;46.762;23.598;2024-03-02T00:06:42;96859.66;;;10.96;47.40
61359;BME280;47228;46.762;23.598;2024-03-02T00:09:10;96860.52;;;10.96;47.24
61359;BME280;47228;46.762;23.598;2024-03-02T00:11:42;96864.23;;;10.97;46.95
61359;BME280;47228;46.762;23.598;2024-03-02T00:14:11;96860.73;;;10.96;46.87
61359;BME280;47228;46.762;23.598;2024-03-02T00:16:40;96857.13;;;10.96;46.98
61359;BME280;47228;46.762;23.598;2024-03-02T00:19:09;96850.69;;;10.94;47.08
61359;BME280;47228;46.762;23.598;2024-03-02T00:21:38;96847.36;;;10.91;47.26
61359;BME280;47228;46.762;23.598;2024-03-02T00:24:17;96848.16;;;10.89;47.18
61359;BME280;47228;46.762;23.598;2024-03-02T00:26:47;96849.76;;;10.87;46.99
61359;BME280;47228;46.762;23.598;2024-03-02T00:29:16;96851.95;;;10.86;47.20
61359;BME280;47228;46.762;23.598;2024-03-02T00:31:47;96853.50;;;10.85;47.33
61359;BME280;47228;46.762;23.598;2024-03-02T00:34:17;96854.82;;;10.83;47.41
61359;BME280;47228;46.762;23.598;2024-03-02T00:36:45;96860.10;;;10.82;47.71
61359;BME280;47228;46.762;23.598;2024-03-02T00:39:16;96859.54;;;10.81;47.22
61359;BME280;47228;46.762;23.598;2024-03-02T00:41:46;96859.79;;;10.80;47.44
61359;BME280;47228;46.762;23.598;2024-03-02T00:44:16;96849.48;;;10.80;47.31
61359;BME280;47228;46.762;23.598;2024-03-02T00:46:46;96835.10;;;10.82;47.26
61359;BME280;47228;46.762;23.598;2024-03-02T00:49:22;96833.88;;;10.81;47.32
61359;BME280;47228;46.762;23.598;2024-03-02T00:51:52;96832.64;;;10.78;47.20
61359;BME280;47228;46.762;23.598;2024-03-02T00:54:23;96837.19;;;10.76;47.53
61359;BME280;47228;46.762;23.598;2024-03-02T00:56:53;96836.20;;;10.73;47.79
61359;BME280;47228;46.762;23.598;2024-03-02T00:59:25;96841.44;;;10.69;48.32
61359;BME280;47228;46.762;23.598;2024-03-02T01:01:53;96841.11;;;10.66;48.40
61359;BME280;47228;46.762;23.598;2024-03-02T01:04:22;96841.60;;;10.61;48.00
61359;BME280;47228;46.762;23.598;2024-03-02T01:06:50;96848.35;;;10.58;48.63
61359;BME280;47228;46.762;23.598;2024-03-02T01:09:18;96850.05;;;10.55;48.68
61359;BME280;47228;46.762;23.598;2024-03-02T01:11:47;96847.60;;;10.51;48.69
61359;BME280;47228;46.762;23.598;2024-03-02T01:14:15;96844.38;;;10.48;48.78
61359;BME280;47228;46.762;23.598;2024-03-02T01:16:43;96841.51;;;10.46;49.30
61359;BME280;47228;46.762;23.598;2024-03-02T01:19:11;96838.71;;;10.44;49.41
61359;BME280;47228;46.762;23.598;2024-03-02T01:21:39;96831.77;;;10.42;49.54
61359;BME280;47228;46.762;23.598;2024-03-02T01:24:07;96832.11;;;10.39;49.70
61359;BME280;47228;46.762;23.598;2024-03-02T01:26:35;96834.38;;;10.37;49.80
61359;BME280;47228;46.762;23.598;2024-03-02T01:29:04;96820.90;;;10.31;49.53
61359;BME280;47228;46.762;23.598;2024-03-02T01:31:32;96814.63;;;10.22;49.71
61359;BME280;47228;46.762;23.598;2024-03-02T01:34:00;96813.58;;;10.16;49.61
61359;BME280;47228;46.762;23.598;2024-03-02T01:36:28;96814.65;;;10.12;49.96
61359;BME280;47228;46.762;23.598;2024-03-02T01:38:57;96816.71;;;10.08;50.31
61359;BME280;47228;46.762;23.598;2024-03-02T01:41:25;96817.51;;;10.05;50.69
61359;BME280;47228;46.762;23.598;2024-03-02T01:43:54;96822.42;;;10.01;50.58
61359;BME280;47228;46.762;23.598;2024-03-02T01:46:22;96825.98;;;9.95;50.28
61359;BME280;47228;46.762;23.598;2024-03-02T01:48:50;96827.73;;;9.92;50.69
61359;BME280;47228;46.762;23.598;2024-03-02T01:51:18;96828.73;;;9.89;50.72
61359;BME280;47228;46.762;23.598;2024-03-02T01:53:46;96827.40;;;9.87;51.17
61359;BME280;47228;46.762;23.598;2024-03-02T01:56:14;96826.31;;;9.85;51.43
61359;BME280;47228;46.762;23.598;2024-03-02T01:58:42;96827.31;;;9.81;51.19
61359;BME280;47228;46.762;23.598;2024-03-02T02:01:12;96824.47;;;9.77;51.09
61359;BME280;47228;46.762;23.598;2024-03-02T02:03:40;96825.33;;;9.76;51.34
61359;BME280;47228;46.762;23.598;2024-03-02T02:06:08;96821.29;;;9.75;51.51
61359;BME280;47228;46.762;23.598;2024-03-02T02:08:37;96816.25;;;9.72;51.53
61359;BME280;47228;46.762;23.598;2024-03-02T02:11:06;96813.79;;;9.72;51.87
61359;BME280;47228;46.762;23.598;2024-03-02T02:13:34;96811.98;;;9.71;51.74
61359;BME280;47228;46.762;23.598;2024-03-02T02:16:06;96819.60;;;9.69;51.71
61359;BME280;47228;46.762;23.598;2024-03-02T02:18:35;96817.48;;;9.66;51.45
61359;BME280;47228;46.762;23.598;2024-03-02T02:21:06;96812.54;;;9.64;51.50
61359;BME280;47228;46.762;23.598;2024-03-02T02:23:34;96813.79;;;9.64;51.99
61359;BME280;47228;46.762;23.598;2024-03-02T02:26:03;96811.80;;;9.63;52.23
61359;BME280;47228;46.762;23.598;2024-03-02T02:28:31;96810.70;;;9.60;52.10
61359;BME280;47228;46.762;23.598;2024-03-02T02:30:59;96805.70;;;9.58;52.03
61359;BME280;47228;46.762;23.598;2024-03-02T02:33:28;96801.22;;;9.56;51.91
61359;BME280;47228;46.762;23.598;2024-03-02T02:35:57;96796.13;;;9.54;51.64
61359;BME280;47228;46.762;23.598;2024-03-02T02:38:25;96790.05;;;9.54;51.99
61359;BME280;47228;46.762;23.598;2024-03-02T02:40:53;96786.52;;;9.52;51.70
61359;BME280;47228;46.762;23.598;2024-03-02T02:43:21;96780.64;;;9.51;51.74
61359;BME280;47228;46.762;23.598;2024-03-02T02:45:49;96772.93;;;9.51;51.82
61359;BME280;47228;46.762;23.598;2024-03-02T02:48:17;96767.96;;;9.51;52.22
61359;BME280;47228;46.762;23.598;2024-03-02T02:50:46;96765.59;;;9.51;52.24
61359;BME280;47228;46.762;23.598;2024-03-02T02:53:14;96767.15;;;9.52;52.52
61359;BME280;47228;46.762;23.598;2024-03-02T02:55:42;96762.29;;;9.52;52.79
61359;BME280;47228;46.762;23.598;2024-03-02T02:58:11;96762.52;;;9.53;52.56
61359;BME280;47228;46.762;23.598;2024-03-02T03:00:40;96763.33;;;9.54;52.82
61359;BME280;47228;46.762;23.598;2024-03-02T03:03:08;96765.30;;;9.54;52.63
61359;BME280;47228;46.762;23.598;2024-03-02T03:05:36;96762.98;;;9.53;52.50
61359;BME280;47228;46.762;23.598;2024-03-02T03:08:04;96760.25;;;9.52;52.53
61359;BME280;47228;46.762;23.598;2024-03-02T03:10:33;96759.80;;;9.51;52.73
61359;BME280;47228;46.762;23.598;2024-03-02T03:13:01;96757.08;;;9.49;52.65
61359;BME280;47228;46.762;23.598;2024-03-02T03:15:29;96754.61;;;9.47;52.18
61359;BME280;47228;46.762;23.598;2024-03-02T03:17:57;96758.65;;;9.44;52.20
61359;BME280;47228;46.762;23.598;2024-03-02T03:20:26;96756.75;;;9.41;52.44
61359;BME280;47228;46.762;23.598;2024-03-02T03:22:54;96753.79;;;9.38;52.65
61359;BME280;47228;46.762;23.598;2024-03-02T03:25:22;96751.55;;;9.37;52.66
61359;BME280;47228;46.762;23.598;2024-03-02T03:27:50;96753.59;;;9.34;52.74
61359;BME280;47228;46.762;23.598;2024-03-02T03:30:20;96751.60;;;9.32;52.84
61359;BME280;47228;46.762;23.598;2024-03-02T03:32:49;96749.54;;;9.29;53.01
61359;BME280;47228;46.762;23.598;2024-03-02T03:35:17;96748.78;;;9.26;52.82
61359;BME280;47228;46.762;23.598;2024-03-02T03:37:46;96744.52;;;9.22;53.05
61359;BME280;47228;46.762;23.598;2024-03-02T03:40:14;96741.63;;;9.18;53.18
61359;BME280;47228;46.762;23.598;2024-03-02T03:42:42;96746.69;;;9.16;53.46
61359;BME280;47228;46.762;23.598;2024-03-02T03:45:11;96750.65;;;9.14;53.85
61359;BME280;47228;46.762;23.598;2024-03-02T03:47:39;96750.38;;;9.12;54.06
61359;BME280;47228;46.762;23.598;2024-03-02T03:50:07;96750.25;;;9.11;54.28
61359;BME280;47228;46.762;23.598;2024-03-02T03:52:36;96749.94;;;9.08;53.98
61359;BME280;47228;46.762;23.598;2024-03-02T03:55:04;96752.64;;;9.04;54.30
61359;BME280;47228;46.762;23.598;2024-03-02T03:57:33;96750.10;;;9.02;54.06
61359;BME280;47228;46.762;23.598;2024-03-02T04:00:03;96750.45;;;9.00;54.04
61359;BME280;47228;46.762;23.598;2024-03-02T04:02:31;96747.86;;;8.97;53.80
61359;BME280;47228;46.762;23.598;2024-03-02T04:04:59;96745.88;;;8.95;53.67
61359;BME280;47228;46.762;23.598;2024-03-02T04:07:27;96750.34;;;8.93;54.10
61359;BME280;47228;46.762;23.598;2024-03-02T04:09:55;96749.70;;;8.92;54.41
61359;BME280;47228;46.762;23.598;2024-03-02T04:12:24;96747.50;;;8.91;54.29
61359;BME280;47228;46.762;23.598;2024-03-02T04:14:51;96746.72;;;8.91;54.35
61359;BME280;47228;46.762;23.598;2024-03-02T04:17:20;96744.33;;;8.90;54.51
61359;BME280;47228;46.762;23.598;2024-03-02T04:19:48;96744.33;;;8.89;54.10
61359;BME280;47228;46.762;23.598;2024-03-02T04:22:16;96745.71;;;8.88;54.35
61359;BME280;47228;46.762;23.598;2024-03-02T04:24:52;96746.77;;;8.86;54.71
61359;BME280;47228;46.762;23.598;2024-03-02T04:27:20;96747.23;;;8.84;54.93
61359;BME280;47228;46.762;23.598;2024-03-02T04:29:48;96742.91;;;8.82;54.84
61359;BME280;47228;46.762;23.598;2024-03-02T04:32:16;96742.77;;;8.79;54.89
61359;BME280;47228;46.762;23.598;2024-03-02T04:34:45;96742.19;;;8.78;54.88
61359;BME280;47228;46.762;23.598;2024-03-02T04:37:13;96744.73;;;8.78;54.96
61359;BME280;47228;46.762;23.598;2024-03-02T04:39:42;96742.55;;;8.77;54.75
61359;BME280;47228;46.762;23.598;2024-03-02T04:42:10;96740.84;;;8.76;54.90
61359;BME280;47228;46.762;23.598;2024-03-02T04:44:38;96742.27;;;8.75;54.92
61359;BME280;47228;46.762;23.598;2024-03-02T04:47:06;96745.49;;;8.73;54.70
61359;BME280;47228;46.762;23.598;2024-03-02T04:49:34;96747.63;;;8.72;55.02
61359;BME280;47228;46.762;23.598;2024-03-02T04:52:03;96745.98;;;8.71;55.16
61359;BME280;47228;46.762;23.598;2024-03-02T04:54:31;96742.94;;;8.69;55.13
61359;BME280;47228;46.762;23.598;2024-03-02T04:56:59;96744.57;;;8.67;55.34
61359;BME280;47228;46.762;23.598;2024-03-02T04:59:27;96745.05;;;8.64;55.29
61359;BME280;47228;46.762;23.598;2024-03-02T05:01:56;96745.60;;;8.60;55.06
61359;BME280;47228;46.762;23.598;2024-03-02T05:04:24;96755.86;;;8.59;55.22
61359;BME280;47228;46.762;23.598;2024-03-02T05:06:52;96754.15;;;8.57;54.91
61359;BME280;47228;46.762;23.598;2024-03-02T05:09:22;96754.19;;;8.56;54.93
61359;BME280;47228;46.762;23.598;2024-03-02T05:11:50;96753.83;;;8.54;55.10
61359;BME280;47228;46.762;23.598;2024-03-02T05:14:37;96753.52;;;8.51;54.92
61359;BME280;47228;46.762;23.598;2024-03-02T05:17:06;96751.52;;;8.50;55.35
61359;BME280;47228;46.762;23.598;2024-03-02T05:19:34;96752.27;;;8.49;55.58
61359;BME280;47228;46.762;23.598;2024-03-02T05:22:02;96750.02;;;8.45;55.38
61359;BME280;47228;46.762;23.598;2024-03-02T05:24:31;96745.88;;;8.44;55.53
61359;BME280;47228;46.762;23.598;2024-03-02T05:26:59;96747.23;;;8.42;55.63
61359;BME280;47228;46.762;23.598;2024-03-02T05:29:27;96754.13;;;8.41;56.16
61359;BME280;47228;46.762;23.598;2024-03-02T05:31:55;96753.84;;;8.40;56.03
61359;BME280;47228;46.762;23.598;2024-03-02T05:34:23;96753.44;;;8.39;55.92
61359;BME280;47228;46.762;23.598;2024-03-02T05:36:52;96751.40;;;8.38;55.87
61359;BME280;47228;46.762;23.598;2024-03-02T05:39:20;96748.55;;;8.37;56.08
61359;BME280;47228;46.762;23.598;2024-03-02T05:41:48;96750.14;;;8.37;56.37
61359;BME280;47228;46.762;23.598;2024-03-02T05:44:16;96752.22;;;8.38;56.52
61359;BME280;47228;46.762;23.598;2024-03-02T05:46:45;96758.23;;;8.38;56.61
61359;BME280;47228;46.762;23.598;2024-03-02T05:49:14;96764.39;;;8.38;56.79
61359;BME280;47228;46.762;23.598;2024-03-02T05:51:42;96765.12;;;8.39;57.14
61359;BME280;47228;46.762;23.598;2024-03-02T05:54:10;96769.20;;;8.39;56.98
61359;BME280;47228;46.762;23.598;2024-03-02T05:56:38;96765.01;;;8.39;56.83
61359;BME280;47228;46.762;23.598;2024-03-02T05:59:06;96764.09;;;8.39;57.20
61359;BME280;47228;46.762;23.598;2024-03-02T06:01:45;96765.12;;;8.39;56.93
61359;BME280;47228;46.762;23.598;2024-03-02T06:04:20;96768.02;;;8.38;56.90
61359;BME280;47228;46.762;23.598;2024-03-02T06:06:48;96770.70;;;8.40;57.23
61359;BME280;47228;46.762;23.598;2024-03-02T06:09:17;96773.17;;;8.39;57.29
61359;BME280;47228;46.762;23.598;2024-03-02T06:11:48;96774.32;;;8.39;56.80
61359;BME280;47228;46.762;23.598;2024-03-02T06:14:16;96777.01;;;8.38;56.73
61359;BME280;47228;46.762;23.598;2024-03-02T06:16:44;96777.34;;;8.39;56.93
61359;BME280;47228;46.762;23.598;2024-03-02T06:19:12;96779.73;;;8.40;57.27
61359;BME280;47228;46.762;23.598;2024-03-02T06:21:41;96778.59;;;8.43;57.57
61359;BME280;47228;46.762;23.598;2024-03-02T06:24:09;96779.66;;;8.44;57.60
61359;BME280;47228;46.762;23.598;2024-03-02T06:26:37;96781.90;;;8.46;57.21
61359;BME280;47228;46.762;23.598;2024-03-02T06:29:05;96779.20;;;8.47;57.18
61359;BME280;47228;46.762;23.598;2024-03-02T06:31:33;96779.36;;;8.49;57.39
61359;BME280;47228;46.762;23.598;2024-03-02T06:34:01;96783.70;;;8.51;57.36
61359;BME280;47228;46.762;23.598;2024-03-02T06:36:31;96785.48;;;8.52;57.46
61359;BME280;47228;46.762;23.598;2024-03-02T06:39:00;96785.46;;;8.54;57.36
61359;BME280;47228;46.762;23.598;2024-03-02T06:41:28;96785.83;;;8.55;57.46
61359;BME280;47228;46.762;23.598;2024-03-02T06:43:56;96786.08;;;8.57;57.55
61359;BME280;47228;46.762;23.598;2024-03-02T06:46:28;96786.81;;;8.58;57.69
61359;BME280;47228;46.762;23.598;2024-03-02T06:48:56;96788.23;;;8.60;57.47
61359;BME280;47228;46.762;23.598;2024-03-02T06:51:25;96790.11;;;8.61;57.70
61359;BME280;47228;46.762;23.598;2024-03-02T06:53:53;96794.59;;;8.64;57.67
61359;BME280;47228;46.762;23.598;2024-03-02T06:56:21;96796.75;;;8.66;57.57
61359;BME280;47228;46.762;23.598;2024-03-02T06:58:49;96799.92;;;8.69;57.77
61359;BME280;47228;46.762;23.598;2024-03-02T07:01:17;96796.30;;;8.72;57.95
61359;BME280;47228;46.762;23.598;2024-03-02T07:03:46;96798.20;;;8.75;58.09
61359;BME280;47228;46.762;23.598;2024-03-02T07:06:14;96795.55;;;8.77;57.78
61359;BME280;47228;46.762;23.598;2024-03-02T07:08:42;96797.54;;;8.80;57.37
61359;BME280;47228;46.762;23.598;2024-03-02T07:11:10;96800.27;;;8.82;56.85
61359;BME280;47228;46.762;23.598;2024-03-02T07:13:38;96803.89;;;8.86;56.91
61359;BME280;47228;46.762;23.598;2024-03-02T07:16:06;96799.86;;;8.89;57.05
61359;BME280;47228;46.762;23.598;2024-03-02T07:18:56;96797.98;;;8.93;56.67
61359;BME280;47228;46.762;23.598;2024-03-02T07:21:25;96796.83;;;8.96;56.45
61359;BME280;47228;46.762;23.598;2024-03-02T07:23:53;96795.76;;;9.02;56.27
61359;BME280;47228;46.762;23.598;2024-03-02T07:26:21;96790.74;;;9.06;55.87
61359;BME280;47228;46.762;23.598;2024-03-02T07:28:52;96789.95;;;9.11;55.43
61359;BME280;47228;46.762;23.598;2024-03-02T07:31:21;96789.61;;;9.16;55.07
61359;BME280;47228;46.762;23.598;2024-03-02T07:33:49;96788.41;;;9.21;55.03
61359;BME280;47228;46.762;23.598;2024-03-02T07:36:17;96786.16;;;9.26;54.89
61359;BME280;47228;46.762;23.598;2024-03-02T07:38:47;96794.09;;;9.31;54.92
61359;BME280;47228;46.762;23.598;2024-03-02T07:41:18;96796.08;;;9.38;54.75
61359;BME280;47228;46.762;23.598;2024-03-02T07:43:46;96800.33;;;9.44;54.26
61359;BME280;47228;46.762;23.598;2024-03-02T07:46:14;96799.01;;;9.50;53.67
61359;BME280;47228;46.762;23.598;2024-03-02T07:48:42;96796.48;;;9.55;53.53
61359;BME280;47228;46.762;23.598;2024-03-02T07:51:11;96796.30;;;9.61;52.96
61359;BME280;47228;46.762;23.598;2024-03-02T07:53:39;96797.34;;;9.67;52.97
61359;BME280;47228;46.762;23.598;2024-03-02T07:56:08;96797.98;;;9.75;52.73
61359;BME280;47228;46.762;23.598;2024-03-02T07:58:36;96799.15;;;9.80;52.47
61359;BME280;47228;46.762;23.598;2024-03-02T08:01:04;96798.59;;;9.87;52.56
61359;BME280;47228;46.762;23.598;2024-03-02T08:03:33;96794.80;;;9.93;52.41
61359;BME280;47228;46.762;23.598;2024-03-02T08:06:02;96796.85;;;10.00;52.48
61359;BME280;47228;46.762;23.598;2024-03-02T08:08:30;96797.25;;;10.07;52.54
61359;BME280;47228;46.762;23.598;2024-03-02T08:10:58;96794.27;;;10.14;52.47
61359;BME280;47228;46.762;23.598;2024-03-02T08:13:28;96794.93;;;10.19;52.08
61359;BME280;47228;46.762;23.598;2024-03-02T08:15:56;96791.21;;;10.26;51.74
61359;BME280;47228;46.762;23.598;2024-03-02T08:18:25;96792.93;;;10.31;51.92
61359;BME280;47228;46.762;23.598;2024-03-02T08:20:53;96792.93;;;10.36;51.47
61359;BME280;47228;46.762;23.598;2024-03-02T08:23:21;96793.75;;;10.42;51.36
61359;BME280;47228;46.762;23.598;2024-03-02T08:25:50;96789.03;;;10.46;51.13
61359;BME280;47228;46.762;23.598;2024-03-02T08:28:18;96789.23;;;10.53;50.77
61359;BME280;47228;46.762;23.598;2024-03-02T08:30:47;96789.27;;;10.59;50.69
61359;BME280;47228;46.762;23.598;2024-03-02T08:33:16;96788.03;;;10.65;50.45
61359;BME280;47228;46.762;23.598;2024-03-02T08:35:44;96792.59;;;10.72;49.86
61359;BME280;47228;46.762;23.598;2024-03-02T08:38:12;96794.78;;;10.79;49.62
61359;BME280;47228;46.762;23.598;2024-03-02T08:40:41;96793.65;;;10.86;49.64
61359;BME280;47228;46.762;23.598;2024-03-02T08:43:09;96794.93;;;10.93;49.86
61359;BME280;47228;46.762;23.598;2024-03-02T08:45:37;96796.42;;;11.00;49.75
61359;BME280;47228;46.762;23.598;2024-03-02T08:48:08;96798.80;;;11.09;49.47
61359;BME280;47228;46.762;23.598;2024-03-02T08:50:36;96801.25;;;11.16;49.08
61359;BME280;47228;46.762;23.598;2024-03-02T08:53:04;96798.65;;;11.22;49.47
61359;BME280;47228;46.762;23.598;2024-03-02T08:55:33;96798.08;;;11.30;49.69
61359;BME280;47228;46.762;23.598;2024-03-02T08:58:01;96796.48;;;11.38;49.45
61359;BME280;47228;46.762;23.598;2024-03-02T09:00:29;96801.91;;;11.45;49.25
61359;BME280;47228;46.762;23.598;2024-03-02T09:02:57;96801.88;;;11.52;48.88
61359;BME280;47228;46.762;23.598;2024-03-02T09:05:26;96803.27;;;11.58;48.50
61359;BME280;47228;46.762;23.598;2024-03-02T09:07:54;96798.25;;;11.65;48.39
61359;BME280;47228;46.762;23.598;2024-03-02T09:10:23;96796.56;;;11.71;48.28
61359;BME280;47228;46.762;23.598;2024-03-02T09:12:55;96794.89;;;11.78;48.56
61359;BME280;47228;46.762;23.598;2024-03-02T09:15:23;96794.05;;;11.85;48.17
61359;BME280;47228;46.762;23.598;2024-03-02T09:17:52;96793.95;;;11.93;47.12
61359;BME280;47228;46.762;23.598;2024-03-02T09:20:20;96797.04;;;12.01;46.30
61359;BME280;47228;46.762;23.598;2024-03-02T09:22:49;96798.66;;;12.10;46.01
61359;BME280;47228;46.762;23.598;2024-03-02T09:25:17;96802.27;;;12.18;45.19
61359;BME280;47228;46.762;23.598;2024-03-02T09:27:45;96802.67;;;12.28;45.06
61359;BME280;47228;46.762;23.598;2024-03-02T09:30:13;96803.75;;;12.37;45.53
61359;BME280;47228;46.762;23.598;2024-03-02T09:32:42;96801.68;;;12.48;45.68
61359;BME280;47228;46.762;23.598;2024-03-02T09:35:10;96805.55;;;12.56;44.87
61359;BME280;47228;46.762;23.598;2024-03-02T09:37:39;96800.36;;;12.64;44.32
61359;BME280;47228;46.762;23.598;2024-03-02T09:40:08;96799.40;;;12.72;43.74
61359;BME280;47228;46.762;23.598;2024-03-02T09:42:37;96803.81;;;12.78;43.63
61359;BME280;47228;46.762;23.598;2024-03-02T09:45:06;96800.40;;;12.83;43.57
61359;BME280;47228;46.762;23.598;2024-03-02T09:47:34;96804.26;;;12.88;42.99
61359;BME280;47228;46.762;23.598;2024-03-02T09:50:03;96803.93;;;12.92;43.21
61359;BME280;47228;46.762;23.598;2024-03-02T09:52:32;96805.44;;;12.98;43.23
61359;BME280;47228;46.762;23.598;2024-03-02T09:55:00;96804.63;;;13.05;43.07
61359;BME280;47228;46.762;23.598;2024-03-02T09:57:29;96798.13;;;13.10;42.93
61359;BME280;47228;46.762;23.598;2024-03-02T09:59:57;96800.17;;;13.15;42.78
61359;BME280;47228;46.762;23.598;2024-03-02T10:02:25;96791.30;;;13.20;42.50
61359;BME280;47228;46.762;23.598;2024-03-02T10:04:53;96795.91;;;13.24;42.22
61359;BME280;47228;46.762;23.598;2024-03-02T10:07:21;96795.44;;;13.27;42.19
61359;BME280;47228;46.762;23.598;2024-03-02T10:09:49;96795.42;;;13.28;41.91
61359;BME280;47228;46.762;23.598;2024-03-02T10:12:20;96796.05;;;13.30;41.92
61359;BME280;47228;46.762;23.598;2024-03-02T10:14:48;96798.55;;;13.32;42.18
61359;BME280;47228;46.762;23.598;2024-03-02T10:17:18;96794.80;;;13.35;41.92
61359;BME280;47228;46.762;23.598;2024-03-02T10:19:46;96794.55;;;13.38;41.82
61359;BME280;47228;46.762;23.598;2024-03-02T10:22:15;96791.86;;;13.39;42.09
61359;BME280;47228;46.762;23.598;2024-03-02T10:24:44;96795.14;;;13.41;42.09
61359;BME280;47228;46.762;23.598;2024-03-02T10:27:19;96794.19;;;13.43;42.03
61359;BME280;47228;46.762;23.598;2024-03-02T10:29:50;96792.14;;;13.45;41.75
61359;BME280;47228;46.762;23.598;2024-03-02T10:32:18;96792.39;;;13.47;41.78
61359;BME280;47228;46.762;23.598;2024-03-02T10:34:47;96789.55;;;13.48;41.53
61359;BME280;47228;46.762;23.598;2024-03-02T10:37:15;96791.66;;;13.50;41.64
61359;BME280;47228;46.762;23.598;2024-03-02T10:39:48;96787.95;;;13.51;41.77
61359;BME280;47228;46.762;23.598;2024-03-02T10:42:17;96785.30;;;13.52;41.49
61359;BME280;47228;46.762;23.598;2024-03-02T10:44:46;96784.80;;;13.52;41.00
61359;BME280;47228;46.762;23.598;2024-03-02T10:47:19;96785.08;;;13.51;41.14
61359;BME280;47228;46.762;23.598;2024-03-02T10:49:51;96784.17;;;13.51;41.15
61359;BME280;47228;46.762;23.598;2024-03-02T10:52:19;96782.75;;;13.52;41.26
61359;BME280;47228;46.762;23.598;2024-03-02T10:54:47;96780.65;;;13.54;41.28
61359;BME280;47228;46.762;23.598;2024-03-02T10:57:16;96776.86;;;13.56;41.10
61359;BME280;47228;46.762;23.598;2024-03-02T10:59:53;96771.78;;;13.59;41.29
61359;BME280;47228;46.762;23.598;2024-03-02T11:02:25;96768.96;;;13.62;40.89
61359;BME280;47228;46.762;23.598;2024-03-02T11:04:55;96764.89;;;13.64;40.76
61359;BME280;47228;46.762;23.598;2024-03-02T11:07:24;96762.48;;;13.66;40.47
61359;BME280;47228;46.762;23.598;2024-03-02T11:10:01;96761.45;;;13.68;40.76
61359;BME280;47228;46.762;23.598;2024-03-02T11:12:56;96758.40;;;13.71;40.77
61359;BME280;47228;46.762;23.598;2024-03-02T11:15:27;96754.85;;;13.75;41.00
61359;BME280;47228;46.762;23.598;2024-03-02T11:17:56;96752.71;;;13.80;40.73
61359;BME280;47228;46.762;23.598;2024-03-02T11:20:25;96753.10;;;13.87;40.62
61359;BME280;47228;46.762;23.598;2024-03-02T11:22:57;96748.73;;;13.94;40.71
61359;BME280;47228;46.762;23.598;2024-03-02T11:25:27;96749.80;;;14.05;40.68
61359;BME280;47228;46.762;23.598;2024-03-02T11:33:06;96739.59;;;14.23;39.93
61359;BME280;47228;46.762;23.598;2024-03-02T11:35:44;96734.83;;;14.28;39.79
61359;BME280;47228;46.762;23.598;2024-03-02T11:38:18;96733.90;;;14.34;39.65
61359;BME280;47228;46.762;23.598;2024-03-02T11:40:46;96734.34;;;14.38;39.37
61359;BME280;47228;46.762;23.598;2024-03-02T11:43:15;96732.42;;;14.42;38.84
61359;BME280;47228;46.762;23.598;2024-03-02T11:45:43;96735.79;;;14.46;39.13
61359;BME280;47228;46.762;23.598;2024-03-02T11:48:16;96736.29;;;14.51;39.05
61359;BME280;47228;46.762;23.598;2024-03-02T11:50:49;96732.54;;;14.57;38.83
61359;BME280;47228;46.762;23.598;2024-03-02T11:53:19;96733.14;;;14.62;38.47
61359;BME280;47228;46.762;23.598;2024-03-02T11:55:49;96734.62;;;14.68;38.64
61359;BME280;47228;46.762;23.598;2024-03-02T11:58:17;96734.59;;;14.73;38.62
61359;BME280;47228;46.762;23.598;2024-03-02T12:00:46;96732.67;;;14.76;38.42
61359;BME280;47228;46.762;23.598;2024-03-02T12:03:15;96731.79;;;14.78;38.37
61359;BME280;47228;46.762;23.598;2024-03-02T12:05:43;96730.77;;;14.80;37.88
61359;BME280;47228;46.762;23.598;2024-03-02T12:08:12;96729.48;;;14.82;37.70
61359;BME280;47228;46.762;23.598;2024-03-02T12:10:41;96731.59;;;14.83;37.60
61359;BME280;47228;46.762;23.598;2024-03-02T12:13:10;96731.56;;;14.84;37.62
61359;BME280;47228;46.762;23.598;2024-03-02T12:15:39;96730.41;;;14.86;37.46
61359;BME280;47228;46.762;23.598;2024-03-02T12:18:10;96725.11;;;14.85;37.50
61359;BME280;47228;46.762;23.598;2024-03-02T12:20:38;96724.48;;;14.85;37.31
61359;BME280;47228;46.762;23.598;2024-03-02T12:23:06;96721.27;;;14.86;37.65
61359;BME280;47228;46.762;23.598;2024-03-02T12:25:35;96725.90;;;14.89;37.79
61359;BME280;47228;46.762;23.598;2024-03-02T12:28:04;96720.77;;;14.92;37.62
61359;BME280;47228;46.762;23.598;2024-03-02T12:30:35;96719.08;;;14.95;37.39
61359;BME280;47228;46.762;23.598;2024-03-02T12:33:03;96720.60;;;14.96;37.38
61359;BME280;47228;46.762;23.598;2024-03-02T12:35:32;96721.77;;;14.98;37.17
61359;BME280;47228;46.762;23.598;2024-03-02T12:38:00;96716.14;;;15.02;37.08
61359;BME280;47228;46.762;23.598;2024-03-02T12:40:30;96712.51;;;15.08;37.15
61359;BME280;47228;46.762;23.598;2024-03-02T12:43:00;96710.60;;;15.13;36.99
61359;BME280;47228;46.762;23.598;2024-03-02T12:45:28;96706.54;;;15.19;37.02
61359;BME280;47228;46.762;23.598;2024-03-02T12:47:57;96706.82;;;15.23;37.00
61359;BME280;47228;46.762;23.598;2024-03-02T12:50:25;96705.04;;;15.28;37.04
61359;BME280;47228;46.762;23.598;2024-03-02T12:52:54;96707.30;;;15.28;36.62
61359;BME280;47228;46.762;23.598;2024-03-02T12:55:23;96707.11;;;15.30;36.96
61359;BME280;47228;46.762;23.598;2024-03-02T12:57:52;96706.14;;;15.30;36.87
61359;BME280;47228;46.762;23.598;2024-03-02T13:00:21;96708.17;;;15.29;36.91
61359;BME280;47228;46.762;23.598;2024-03-02T13:02:51;96708.46;;;15.27;37.07
61359;BME280;47228;46.762;23.598;2024-03-02T13:05:21;96713.19;;;15.23;37.35
61359;BME280;47228;46.762;23.598;2024-03-02T13:07:50;96711.85;;;15.19;37.54
61359;BME280;47228;46.762;23.598;2024-03-02T13:10:18;96708.46;;;15.13;37.43